createdAt,value
2023-12-18T00:01:17.117Z,92.80
2023-12-18T00:03:45.132Z,92.64
2023-12-18T00:06:12.511Z,92.39
2023-12-18T00:08:39.601Z,92.14
2023-12-18T00:11:08.164Z,91.77
2023-12-18T00:13:35.134Z,91.67
2023-12-18T00:16:02.858Z,91.14
2023-12-18T00:18:30.617Z,91.02
2023-12-18T00:20:57.985Z,90.28
2023-12-18T00:23:25.787Z,90.43
2023-12-18T00:25:52.814Z,90.48
2023-12-18T00:28:21.731Z,90.57
2023-12-18T00:30:49.632Z,90.79
2023-12-18T00:33:16.896Z,90.87
2023-12-18T00:35:43.918Z,91.15
2023-12-18T00:38:11.084Z,90.80
2023-12-18T00:40:38.092Z,91.39
2023-12-18T00:43:05.095Z,91.27
2023-12-18T00:45:33.461Z,90.94
2023-12-18T00:48:01.713Z,90.18
2023-12-18T00:50:28.873Z,89.89
2023-12-18T00:52:58.340Z,89.78
2023-12-18T00:55:25.587Z,89.43
2023-12-18T00:57:54.554Z,88.91
2023-12-18T01:00:22.716Z,89.18
2023-12-18T01:02:51.538Z,89.36
2023-12-18T01:05:18.636Z,89.97
2023-12-18T01:07:46.677Z,89.83
2023-12-18T01:10:13.904Z,90.24
2023-12-18T01:12:41.824Z,90.17
2023-12-18T01:15:14.014Z,89.97
2023-12-18T01:17:43.078Z,89.62
2023-12-18T01:20:12.529Z,88.76
2023-12-18T01:22:39.585Z,89.08
2023-12-18T01:25:08.641Z,90.92
2023-12-18T01:27:35.560Z,91.10
2023-12-18T01:30:03.123Z,91.49
2023-12-18T01:32:32.515Z,91.67
2023-12-18T01:34:59.551Z,90.97
2023-12-18T01:37:27.972Z,91.15
2023-12-18T01:39:55.132Z,91.35
2023-12-18T01:42:22.519Z,91.02
2023-12-18T01:44:49.561Z,90.53
2023-12-18T01:47:18.699Z,90.31
2023-12-18T01:49:47.434Z,89.78
2023-12-18T01:52:14.723Z,89.32
2023-12-18T01:54:48.429Z,88.56
2023-12-18T01:57:19.392Z,88.53
2023-12-18T01:59:49.403Z,87.81
2023-12-18T02:02:18.904Z,86.97
2023-12-18T02:04:48.722Z,86.55
2023-12-18T02:07:15.894Z,87.02
2023-12-18T02:09:45.569Z,87.04
2023-12-18T02:12:12.739Z,87.03
2023-12-18T02:14:41.920Z,86.95
2023-12-18T02:17:09.804Z,86.05
2023-12-18T02:19:37.707Z,86.04
2023-12-18T02:22:04.810Z,85.72
2023-12-18T02:24:33.388Z,86.05
2023-12-18T02:27:01.344Z,85.75
2023-12-18T02:29:28.597Z,85.58
2023-12-18T02:31:55.815Z,86.08
2023-12-18T02:34:23.189Z,85.54
2023-12-18T02:36:50.351Z,85.49
2023-12-18T02:39:18.629Z,84.81
2023-12-18T02:41:46.907Z,84.95
2023-12-18T02:44:14.045Z,85.05
2023-12-18T02:46:41.373Z,85.43
2023-12-18T02:49:08.673Z,85.39
2023-12-18T02:51:36.640Z,85.81
2023-12-18T02:54:04.171Z,86.01
2023-12-18T02:56:32.041Z,85.90
2023-12-18T02:59:03.269Z,85.67
2023-12-18T03:01:30.623Z,85.60
2023-12-18T03:04:00.560Z,85.63
2023-12-18T03:06:30.184Z,86.03
2023-12-18T03:08:57.237Z,85.72
2023-12-18T03:11:27.740Z,85.90
2023-12-18T03:13:55.143Z,85.76
2023-12-18T03:16:23.807Z,85.93
2023-12-18T03:18:52.481Z,85.31
2023-12-18T03:21:20.011Z,85.62
2023-12-18T03:23:48.979Z,85.56
2023-12-18T03:26:16.181Z,85.74
2023-12-18T03:28:43.680Z,85.87
2023-12-18T03:31:11.889Z,86.40
2023-12-18T03:33:41.951Z,86.75
2023-12-18T03:36:09.468Z,86.80
2023-12-18T03:38:37.407Z,87.48
2023-12-18T03:41:04.608Z,87.26
2023-12-18T03:43:31.961Z,87.51
2023-12-18T03:45:59.137Z,87.35
2023-12-18T03:48:26.813Z,87.17
2023-12-18T03:50:57.072Z,87.10
2023-12-18T03:53:24.379Z,87.42
2023-12-18T03:55:51.438Z,87.08
2023-12-18T03:58:18.676Z,87.02
2023-12-18T04:00:46.111Z,86.90
2023-12-18T04:03:23.974Z,87.10
2023-12-18T04:08:57.870Z,87.14
2023-12-18T04:11:25.207Z,87.37
2023-12-18T04:13:53.473Z,87.91
2023-12-18T04:16:20.724Z,87.96
2023-12-18T04:18:50.174Z,88.14
2023-12-18T04:21:19.107Z,88.39
2023-12-18T04:23:46.203Z,87.87
2023-12-18T04:26:13.321Z,87.99
2023-12-18T04:28:41.069Z,87.92
2023-12-18T04:31:08.169Z,87.69
2023-12-18T04:33:35.204Z,87.55
2023-12-18T04:36:02.401Z,87.07
2023-12-18T04:38:32.446Z,87.15
2023-12-18T04:40:59.480Z,87.38
2023-12-18T04:43:29.412Z,86.94
2023-12-18T04:45:59.577Z,87.28
2023-12-18T04:48:27.842Z,87.58
2023-12-18T04:50:55.386Z,87.71
2023-12-18T04:53:22.610Z,87.72
2023-12-18T04:55:50.987Z,87.35
2023-12-18T04:58:18.264Z,87.18
2023-12-18T05:00:45.529Z,87.53
2023-12-18T05:03:13.012Z,87.55
2023-12-18T05:05:40.098Z,87.00
2023-12-18T05:08:07.894Z,87.01
2023-12-18T05:10:36.387Z,87.29
2023-12-18T05:13:05.201Z,87.57
2023-12-18T05:15:32.182Z,87.41
2023-12-18T05:17:59.264Z,87.09
2023-12-18T05:20:26.365Z,86.96
2023-12-18T05:22:56.272Z,86.79
2023-12-18T05:25:23.286Z,86.90
2023-12-18T05:27:50.296Z,87.44
2023-12-18T05:30:19.246Z,89.38
2023-12-18T05:32:47.584Z,92.18
2023-12-18T05:35:17.105Z,92.20
2023-12-18T05:37:44.397Z,92.82
2023-12-18T05:40:13.070Z,92.97
2023-12-18T05:42:42.988Z,92.74
2023-12-18T05:45:11.586Z,92.22
2023-12-18T05:47:40.192Z,92.23
2023-12-18T05:50:08.237Z,91.67
2023-12-18T05:52:35.478Z,91.28
2023-12-18T05:55:02.450Z,90.90
2023-12-18T05:57:29.730Z,90.04
2023-12-18T05:59:56.910Z,89.88
2023-12-18T06:02:23.843Z,89.42
2023-12-18T06:04:52.192Z,88.41
2023-12-18T06:07:19.306Z,89.12
2023-12-18T06:09:49.568Z,88.87
2023-12-18T06:12:16.948Z,89.81
2023-12-18T06:14:44.833Z,89.75
2023-12-18T06:17:12.353Z,89.57
2023-12-18T06:19:39.850Z,88.50
2023-12-18T06:22:13.913Z,88.71
2023-12-18T06:24:41.654Z,89.29
2023-12-18T06:27:08.983Z,89.26
2023-12-18T06:29:35.974Z,89.08
2023-12-18T06:32:03.211Z,88.54
2023-12-18T06:34:30.487Z,88.42
2023-12-18T06:36:57.892Z,88.09
2023-12-18T06:39:26.588Z,87.94
2023-12-18T06:41:54.542Z,87.59
2023-12-18T06:44:21.735Z,87.45
2023-12-18T06:46:48.845Z,87.31
2023-12-18T06:49:16.880Z,87.43
2023-12-18T06:51:44.562Z,87.30
2023-12-18T06:54:12.492Z,86.51
2023-12-18T06:56:40.991Z,88.41
2023-12-18T06:59:09.394Z,88.55
2023-12-18T07:01:36.880Z,88.04
2023-12-18T07:04:04.334Z,88.33
2023-12-18T07:06:31.757Z,88.60
2023-12-18T07:08:58.952Z,88.92
2023-12-18T07:11:26.033Z,88.51
2023-12-18T07:13:58.092Z,88.45
2023-12-18T07:16:25.353Z,89.03
2023-12-18T07:18:52.451Z,89.42
2023-12-18T07:21:19.793Z,89.32
2023-12-18T07:23:47.568Z,89.36
2023-12-18T07:26:15.045Z,88.59
2023-12-18T07:28:44.163Z,88.66
2023-12-18T07:31:12.831Z,87.97
2023-12-18T07:33:39.974Z,87.78
2023-12-18T07:36:07.704Z,90.11
2023-12-18T07:38:34.662Z,90.43
2023-12-18T07:41:04.139Z,92.65
2023-12-18T07:43:31.722Z,93.67
2023-12-18T07:45:58.657Z,93.51
2023-12-18T07:48:27.454Z,93.14
2023-12-18T07:50:54.655Z,92.78
2023-12-18T07:53:21.764Z,92.40
2023-12-18T07:55:49.477Z,91.96
2023-12-18T07:58:18.342Z,92.00
2023-12-18T08:00:46.853Z,91.09
2023-12-18T08:03:14.233Z,92.62
2023-12-18T08:05:43.216Z,93.41
2023-12-18T08:08:13.139Z,92.61
2023-12-18T08:10:40.484Z,92.47
2023-12-18T08:13:08.172Z,92.55
2023-12-18T08:15:36.494Z,92.35
2023-12-18T08:18:04.285Z,92.62
2023-12-18T08:20:31.267Z,92.95
2023-12-18T08:22:59.772Z,95.81
2023-12-18T08:25:26.758Z,95.91
2023-12-18T08:27:54.752Z,95.96
2023-12-18T08:30:21.772Z,96.03
2023-12-18T08:32:48.861Z,96.03
2023-12-18T08:35:15.804Z,96.58
2023-12-18T08:37:42.965Z,96.83
2023-12-18T08:40:12.892Z,96.87
2023-12-18T08:42:40.867Z,95.30
2023-12-18T08:45:09.975Z,94.36
2023-12-18T08:47:37.024Z,94.14
2023-12-18T08:50:05.082Z,94.22
2023-12-18T08:52:32.363Z,95.09
2023-12-18T08:54:59.492Z,95.36
2023-12-18T08:57:29.063Z,95.34
2023-12-18T08:59:56.038Z,94.63
2023-12-18T09:02:23.125Z,94.94
2023-12-18T09:04:50.362Z,94.32
2023-12-18T09:07:17.354Z,93.93
2023-12-18T09:09:44.405Z,94.36
2023-12-18T09:12:11.439Z,93.37
2023-12-18T09:14:39.836Z,95.11
2023-12-18T09:17:06.752Z,96.21
2023-12-18T09:19:33.857Z,97.26
2023-12-18T09:22:02.972Z,97.73
2023-12-18T09:24:31.835Z,97.96
2023-12-18T09:26:58.980Z,97.48
2023-12-18T09:29:25.950Z,97.56
2023-12-18T09:31:54.733Z,96.78
2023-12-18T09:34:23.165Z,95.61
2023-12-18T09:36:50.410Z,95.35
2023-12-18T09:39:17.376Z,96.63
2023-12-18T09:41:44.771Z,96.86
2023-12-18T09:44:11.979Z,94.25
2023-12-18T09:46:39.985Z,79.89
2023-12-18T09:49:08.435Z,74.99
2023-12-18T09:51:41.517Z,68.11
2023-12-18T09:54:10.459Z,62.64
2023-12-18T09:56:39.113Z,56.95
2023-12-18T09:59:08.721Z,52.25
2023-12-18T10:01:36.226Z,50.35
2023-12-18T10:04:04.732Z,47.75
2023-12-18T10:06:33.235Z,49.11
2023-12-18T10:09:02.546Z,45.95
2023-12-18T10:11:30.198Z,44.06
2023-12-18T10:13:57.625Z,45.40
2023-12-18T10:16:24.638Z,41.45
2023-12-18T10:18:53.364Z,44.48
2023-12-18T10:21:22.761Z,40.63
2023-12-18T10:23:52.947Z,39.68
2023-12-18T10:26:19.989Z,39.81
2023-12-18T10:28:47.410Z,39.12
2023-12-18T10:31:15.035Z,38.39
2023-12-18T10:33:43.493Z,39.36
2023-12-18T10:36:10.903Z,38.58
2023-12-18T10:38:42.907Z,36.89
2023-12-18T10:41:14.362Z,36.94
2023-12-18T10:43:44.343Z,37.75
2023-12-18T10:46:13.875Z,39.52
2023-12-18T10:48:43.594Z,38.93
2023-12-18T10:51:11.348Z,38.87
2023-12-18T10:53:40.738Z,36.29
2023-12-18T10:56:09.648Z,34.52
2023-12-18T10:58:41.550Z,36.50
2023-12-18T11:01:11.063Z,37.35
2023-12-18T11:03:38.839Z,36.89
2023-12-18T11:06:09.070Z,36.99
2023-12-18T11:08:36.628Z,37.56
2023-12-18T11:11:06.678Z,38.96
2023-12-18T11:14:01.927Z,36.59
2023-12-18T11:16:44.797Z,34.38
2023-12-18T11:19:30.707Z,37.06
2023-12-18T11:22:00.753Z,35.40
2023-12-18T11:24:35.949Z,33.94
2023-12-18T11:27:03.567Z,33.14
2023-12-18T11:29:44.245Z,32.88
2023-12-18T11:32:34.912Z,33.70
2023-12-18T11:35:03.330Z,34.45
2023-12-18T11:37:40.624Z,35.22
2023-12-18T11:40:39.997Z,33.95
2023-12-18T11:43:08.818Z,34.65
2023-12-18T11:45:41.258Z,33.37
2023-12-18T11:48:10.164Z,32.71
2023-12-18T11:50:39.789Z,32.40
2023-12-18T11:53:08.334Z,31.85
2023-12-18T11:55:48.702Z,32.83
2023-12-18T11:58:21.074Z,34.75
2023-12-18T12:00:51.888Z,34.29
2023-12-18T12:03:22.522Z,33.65
2023-12-18T12:05:51.597Z,33.83
2023-12-18T12:08:19.089Z,33.63
2023-12-18T12:10:49.473Z,33.52
2023-12-18T12:13:21.911Z,34.40
2023-12-18T12:16:00.848Z,34.27
2023-12-18T12:18:30.962Z,33.30
2023-12-18T12:20:58.996Z,35.02
2023-12-18T12:23:27.065Z,33.78
2023-12-18T12:25:59.934Z,34.64
2023-12-18T12:28:29.541Z,36.80
2023-12-18T12:30:58.388Z,36.20
2023-12-18T12:33:26.214Z,34.44
2023-12-18T12:35:53.991Z,32.67
2023-12-18T12:38:21.009Z,32.89
2023-12-18T12:40:48.145Z,33.11
2023-12-18T12:43:16.484Z,33.93
2023-12-18T12:45:47.497Z,34.37
2023-12-18T12:48:18.705Z,33.73
2023-12-18T12:50:47.866Z,35.04
2023-12-18T12:53:17.661Z,36.73
2023-12-18T12:55:52.516Z,39.10
2023-12-18T12:58:23.799Z,36.56
2023-12-18T13:00:53.540Z,35.94
2023-12-18T13:03:22.686Z,37.13
2023-12-18T13:05:50.707Z,36.35
2023-12-18T13:08:17.776Z,38.36
2023-12-18T13:10:45.171Z,37.59
2023-12-18T13:13:12.145Z,38.40
2023-12-18T13:15:39.678Z,38.53
2023-12-18T13:18:08.259Z,38.64
2023-12-18T13:20:36.900Z,42.29
2023-12-18T13:23:04.534Z,46.18
2023-12-18T13:25:31.993Z,50.04
2023-12-18T13:27:59.119Z,47.21
2023-12-18T13:30:26.263Z,51.22
2023-12-18T13:32:53.566Z,52.43
2023-12-18T13:35:21.142Z,50.08
2023-12-18T13:37:49.853Z,49.17
2023-12-18T13:40:17.533Z,44.80
2023-12-18T13:42:44.571Z,46.64
2023-12-18T13:45:12.468Z,43.62
2023-12-18T13:47:41.094Z,44.28
2023-12-18T13:50:09.684Z,42.53
2023-12-18T13:52:37.145Z,42.80
2023-12-18T13:55:06.793Z,44.45
2023-12-18T13:57:39.487Z,43.05
2023-12-18T14:00:14.277Z,43.07
2023-12-18T14:02:41.365Z,44.95
2023-12-18T14:05:09.789Z,46.01
2023-12-18T14:07:37.080Z,46.30
2023-12-18T14:10:06.184Z,44.36
2023-12-18T14:12:35.662Z,45.51
2023-12-18T14:15:05.855Z,50.99
2023-12-18T14:17:32.854Z,51.81
2023-12-18T14:20:02.071Z,51.42
2023-12-18T14:22:29.127Z,51.49
2023-12-18T14:24:56.211Z,50.96
2023-12-18T14:27:24.881Z,52.99
2023-12-18T14:29:54.727Z,49.73
2023-12-18T14:32:21.717Z,50.43
2023-12-18T14:34:51.231Z,51.63
2023-12-18T14:37:20.286Z,53.76
2023-12-18T14:39:47.713Z,57.63
2023-12-18T14:42:14.874Z,58.01
2023-12-18T14:44:43.677Z,61.25
2023-12-18T14:47:11.385Z,59.00
2023-12-18T14:49:38.460Z,62.28
2023-12-18T14:52:07.765Z,63.23
2023-12-18T14:54:35.675Z,61.69
2023-12-18T14:57:02.729Z,64.08
2023-12-18T14:59:32.771Z,64.88
2023-12-18T15:02:01.451Z,69.32
2023-12-18T15:04:30.518Z,70.67
2023-12-18T15:06:59.239Z,70.99
2023-12-18T15:09:27.018Z,71.36
2023-12-18T15:11:54.158Z,70.67
2023-12-18T15:14:21.134Z,72.62
2023-12-18T15:16:48.448Z,73.75
2023-12-18T15:19:17.780Z,78.18
2023-12-18T15:21:45.166Z,77.55
2023-12-18T15:24:12.342Z,72.24
2023-12-18T15:26:41.462Z,71.49
2023-12-18T15:29:08.535Z,75.37
2023-12-18T15:31:36.322Z,76.76
2023-12-18T15:34:06.078Z,76.38
2023-12-18T15:36:37.781Z,74.02
2023-12-18T15:39:05.532Z,73.89
2023-12-18T15:41:32.698Z,74.94
2023-12-18T15:44:00.020Z,74.84
2023-12-18T15:46:27.084Z,76.44
2023-12-18T15:48:54.478Z,74.87
2023-12-18T15:51:21.802Z,76.76
2023-12-18T15:53:50.452Z,74.85
2023-12-18T15:56:17.693Z,75.45
2023-12-18T15:58:44.949Z,77.14
2023-12-18T16:01:13.352Z,78.12
2023-12-18T16:03:43.014Z,75.41
2023-12-18T16:06:11.687Z,78.84
2023-12-18T16:08:40.470Z,77.72
2023-12-18T16:11:09.018Z,76.61
2023-12-18T16:13:37.056Z,72.42
2023-12-18T16:16:05.241Z,71.61
2023-12-18T16:18:33.369Z,72.89
2023-12-18T16:21:01.543Z,72.90
2023-12-18T16:23:28.377Z,75.39
2023-12-18T16:25:56.783Z,79.19
2023-12-18T16:28:25.379Z,80.51
2023-12-18T16:30:56.803Z,79.41
2023-12-18T16:33:25.448Z,78.98
2023-12-18T16:35:53.281Z,75.55
2023-12-18T16:38:21.771Z,76.28
2023-12-18T16:40:52.804Z,76.94
2023-12-18T16:43:20.534Z,79.91
2023-12-18T16:45:53.420Z,85.45
2023-12-18T16:48:20.841Z,84.79
2023-12-18T16:50:47.828Z,83.40
2023-12-18T16:53:15.050Z,83.51
2023-12-18T16:55:43.278Z,80.81
2023-12-18T16:58:11.054Z,78.66
2023-12-18T17:00:38.274Z,81.47
2023-12-18T17:03:07.717Z,82.04
2023-12-18T17:05:34.767Z,82.82
2023-12-18T17:08:02.332Z,83.92
2023-12-18T17:10:29.592Z,85.83
2023-12-18T17:12:56.518Z,87.24
2023-12-18T17:15:24.067Z,88.85
2023-12-18T17:17:51.111Z,86.57
2023-12-18T17:20:22.139Z,84.20
2023-12-18T17:22:50.353Z,82.41
2023-12-18T17:25:18.841Z,84.20
2023-12-18T17:27:45.837Z,85.90
2023-12-18T17:30:13.571Z,84.53
2023-12-18T17:32:40.682Z,86.64
2023-12-18T17:35:09.067Z,88.59
2023-12-18T17:37:40.082Z,83.45
2023-12-18T17:40:09.286Z,84.45
2023-12-18T17:42:36.447Z,84.34
2023-12-18T17:45:05.078Z,89.05
2023-12-18T17:47:34.406Z,87.47
2023-12-18T17:50:02.028Z,86.93
2023-12-18T17:52:29.422Z,88.32
2023-12-18T17:54:57.790Z,87.66
2023-12-18T17:57:24.932Z,87.69
2023-12-18T17:59:53.653Z,83.84
2023-12-18T18:02:21.634Z,84.56
2023-12-18T18:04:49.545Z,84.11
2023-12-18T18:07:16.855Z,84.86
2023-12-18T18:09:43.853Z,85.97
2023-12-18T18:12:12.970Z,87.06
2023-12-18T18:14:40.550Z,87.60
2023-12-18T18:17:07.630Z,87.93
2023-12-18T18:19:34.903Z,88.74
2023-12-18T18:22:01.793Z,88.57
2023-12-18T18:24:28.836Z,87.96
2023-12-18T18:27:08.460Z,89.46
2023-12-18T18:29:39.609Z,88.81
2023-12-18T18:32:07.776Z,91.36
2023-12-18T18:34:35.388Z,90.58
2023-12-18T18:37:02.926Z,86.39
2023-12-18T18:39:29.948Z,86.66
2023-12-18T18:41:56.912Z,88.26
2023-12-18T18:44:23.873Z,87.76
2023-12-18T18:46:53.285Z,87.66
2023-12-18T18:49:20.430Z,85.83
2023-12-18T18:51:47.440Z,86.27
2023-12-18T18:54:14.516Z,87.87
2023-12-18T18:56:41.458Z,87.78
2023-12-18T18:59:08.599Z,85.80
2023-12-18T19:01:35.918Z,86.92
2023-12-18T19:04:05.168Z,86.35
2023-12-18T19:06:32.528Z,86.21
2023-12-18T19:08:59.963Z,85.02
2023-12-18T19:11:28.381Z,83.98
2023-12-18T19:13:55.464Z,83.22
2023-12-18T19:16:23.155Z,82.57
2023-12-18T19:18:50.161Z,83.25
2023-12-18T19:21:19.536Z,87.40
2023-12-18T19:23:46.523Z,86.66
2023-12-18T19:26:13.454Z,86.38
2023-12-18T19:28:40.323Z,84.69
2023-12-18T19:31:07.307Z,83.42
2023-12-18T19:33:34.498Z,86.83
2023-12-18T19:36:01.642Z,86.40
2023-12-18T19:38:32.727Z,88.33
2023-12-18T19:40:59.779Z,85.33
2023-12-18T19:43:27.102Z,83.42
2023-12-18T19:45:54.315Z,83.81
2023-12-18T19:48:21.829Z,83.99
2023-12-18T19:50:48.765Z,84.64
2023-12-18T19:53:16.104Z,86.94
2023-12-18T19:55:44.982Z,87.04
2023-12-18T19:58:17.655Z,86.58
2023-12-18T20:00:45.773Z,86.20
2023-12-18T20:03:13.342Z,85.15
2023-12-18T20:05:44.577Z,84.79
2023-12-18T20:08:14.609Z,85.09
2023-12-18T20:10:46.837Z,84.42
2023-12-18T20:13:14.091Z,84.65
2023-12-18T20:15:41.570Z,84.51
2023-12-18T20:18:08.642Z,83.50
2023-12-18T20:20:35.732Z,83.67
2023-12-18T20:23:08.164Z,86.15
2023-12-18T20:25:35.388Z,89.11
2023-12-18T20:28:04.555Z,89.44
2023-12-18T20:30:31.747Z,89.54
2023-12-18T20:32:59.187Z,89.79
2023-12-18T20:35:26.185Z,89.29
2023-12-18T20:37:53.085Z,88.50
2023-12-18T20:40:20.488Z,88.23
2023-12-18T20:42:49.035Z,87.34
2023-12-18T20:45:20.270Z,86.13
2023-12-18T20:47:48.653Z,86.02
2023-12-18T20:50:16.531Z,88.15
2023-12-18T20:52:43.872Z,87.87
2023-12-18T20:55:11.059Z,89.71
2023-12-18T20:57:40.097Z,89.65
2023-12-18T21:00:22.597Z,88.79
2023-12-18T21:02:53.793Z,87.53
2023-12-18T21:05:21.574Z,87.16
2023-12-18T21:07:48.609Z,87.28
2023-12-18T21:10:15.879Z,87.29
2023-12-18T21:12:43.488Z,87.05
2023-12-18T21:15:11.788Z,86.65
2023-12-18T21:17:38.810Z,85.99
2023-12-18T21:20:10.857Z,85.87
2023-12-18T21:22:38.218Z,85.26
2023-12-18T21:25:06.405Z,85.49
2023-12-18T21:27:33.611Z,85.23
2023-12-18T21:30:01.092Z,85.20
2023-12-18T21:32:28.911Z,84.90
2023-12-18T21:34:55.957Z,85.39
2023-12-18T21:37:24.356Z,85.70
2023-12-18T21:39:51.439Z,85.56
2023-12-18T21:42:18.493Z,85.42
2023-12-18T21:44:46.744Z,85.54
2023-12-18T21:47:13.955Z,85.72
2023-12-18T21:49:40.998Z,85.69
2023-12-18T21:52:07.975Z,86.41
2023-12-18T21:54:36.296Z,87.41
2023-12-18T21:57:03.894Z,88.05
2023-12-18T21:59:31.153Z,89.17
2023-12-18T22:01:59.084Z,91.50
2023-12-18T22:04:26.165Z,91.52
2023-12-18T22:06:53.309Z,92.93
2023-12-18T22:09:20.409Z,93.45
2023-12-18T22:11:48.860Z,93.84
2023-12-18T22:14:15.933Z,93.24
2023-12-18T22:16:43.035Z,94.32
2023-12-18T22:19:10.700Z,93.66
2023-12-18T22:21:37.817Z,94.07
2023-12-18T22:24:06.211Z,93.32
2023-12-18T22:26:33.296Z,92.91
2023-12-18T22:29:02.248Z,91.89
2023-12-18T22:31:31.098Z,91.29
2023-12-18T22:33:59.083Z,93.03
2023-12-18T22:36:26.232Z,92.15
2023-12-18T22:38:58.991Z,91.60
2023-12-18T22:41:26.564Z,91.32
2023-12-18T22:43:53.484Z,90.87
2023-12-18T22:46:24.727Z,90.50
2023-12-18T22:48:51.717Z,89.82
2023-12-18T22:51:18.863Z,89.54
2023-12-18T22:53:48.047Z,87.49
2023-12-18T22:56:15.072Z,89.48
2023-12-18T22:58:41.972Z,90.78
2023-12-18T23:01:09.333Z,90.13
2023-12-18T23:03:37.654Z,89.75
2023-12-18T23:06:05.395Z,89.46
2023-12-18T23:08:32.461Z,89.68
2023-12-18T23:11:00.024Z,89.86
2023-12-18T23:13:26.962Z,89.56
2023-12-18T23:15:54.260Z,89.00
2023-12-18T23:18:22.745Z,89.54
2023-12-18T23:20:51.111Z,89.56
2023-12-18T23:23:18.564Z,89.68
2023-12-18T23:25:45.790Z,89.09
2023-12-18T23:28:13.084Z,88.60
2023-12-18T23:30:40.231Z,90.69
2023-12-18T23:33:13.076Z,91.17
2023-12-18T23:35:45.017Z,91.86
2023-12-18T23:38:13.461Z,92.92
2023-12-18T23:40:41.030Z,93.86
2023-12-18T23:43:09.004Z,94.35
2023-12-18T23:45:35.951Z,94.49
2023-12-18T23:48:03.267Z,94.59
2023-12-18T23:50:30.550Z,94.57
2023-12-18T23:52:58.382Z,94.17
2023-12-18T23:55:26.796Z,94.82
2023-12-18T23:57:53.915Z,94.00
